Time;durP1;ratioP1;P1;durP2;ratioP2;P2;SDS_P1;SDS_P2;PMS_P1;PMS_P2;Temp;Humidity;BMP_temperature;BMP_pressure;BME280_temperature;BME280_humidity;BME280_pressure;Samples;Min_cycle;Max_cycle;Signal;HPM_P1;HPM_P2
2022/08/25 00:00:12;;;;;;;4.60;2.83;;;23.20;72.90;;;;;;5113107;27;20213;-71
2022/08/25 00:02:40;;;;;;;8.67;3.10;;;23.20;72.70;;;;;;5118617;27;20240;-71
2022/08/25 00:05:24;;;;;;;5.80;2.47;;;23.20;72.70;;;;;;5125592;27;20200;-71
2022/08/25 00:07:53;;;;;;;3.60;2.50;;;23.20;72.40;;;;;;5101515;27;20211;-71
2022/08/25 00:10:20;;;;;;;8.30;2.80;;;23.20;72.30;;;;;;5120443;27;20200;-71
2022/08/25 00:12:47;;;;;;;6.33;2.73;;;23.20;72.10;;;;;;5117300;27;20206;-71
2022/08/25 00:15:14;;;;;;;5.93;2.87;;;23.20;71.80;;;;;;5111219;27;20212;-71
2022/08/25 00:17:41;;;;;;;4.30;2.97;;;23.20;71.60;;;;;;5087691;27;20557;-71
2022/08/25 00:20:09;;;;;;;6.17;2.80;;;23.20;71.60;;;;;;5105020;27;20199;-71
2022/08/25 00:22:36;;;;;;;4.60;2.47;;;23.10;71.80;;;;;;5120808;27;20567;-71
2022/08/25 00:25:04;;;;;;;9.03;3.10;;;23.10;72.10;;;;;;5102073;27;20208;-71
2022/08/25 00:27:31;;;;;;;3.33;3.03;;;23.10;72.50;;;;;;5103765;27;20270;-71
2022/08/25 00:29:59;;;;;;;4.87;2.93;;;23.10;72.50;;;;;;5098011;28;20293;-70
2022/08/25 00:32:26;;;;;;;4.57;3.23;;;23.10;72.40;;;;;;5083395;27;20215;-71
2022/08/25 00:34:53;;;;;;;10.33;3.30;;;23.00;72.40;;;;;;5098805;28;20549;-71
2022/08/25 00:37:20;;;;;;;10.40;3.33;;;23.00;72.60;;;;;;5105644;27;20200;-71
2022/08/25 00:39:47;;;;;;;9.90;4.47;;;22.90;72.70;;;;;;5113871;27;20204;-70
2022/08/25 00:42:14;;;;;;;5.70;3.13;;;22.90;72.80;;;;;;5121609;27;20223;-71
2022/08/25 00:44:42;;;;;;;5.67;3.33;;;22.90;72.60;;;;;;5117501;27;20260;-71
2022/08/25 00:47:10;;;;;;;4.50;3.53;;;23.00;72.60;;;;;;5105158;27;20208;-71
2022/08/25 00:49:50;;;;;;;6.10;3.40;;;22.90;72.40;;;;;;5120370;27;20216;-71
2022/08/25 00:52:22;;;;;;;5.27;3.67;;;22.90;72.10;;;;;;5096916;28;20216;-71
2022/08/25 00:54:52;;;;;;;5.97;3.80;;;22.90;72.10;;;;;;5117137;27;20196;-71
2022/08/25 00:57:25;;;;;;;4.70;4.00;;;22.80;71.90;;;;;;5076574;27;20196;-72
2022/08/25 01:00:03;;;;;;;4.30;3.70;;;22.80;71.90;;;;;;5116666;27;20224;-72
2022/08/25 01:02:30;;;;;;;7.43;3.90;;;22.80;72.50;;;;;;5103152;27;20211;-71
2022/08/25 01:04:58;;;;;;;6.03;4.43;;;22.80;72.80;;;;;;5104510;28;20205;-71
2022/08/25 01:07:25;;;;;;;7.20;4.03;;;22.70;72.90;;;;;;5121110;27;20193;-71
2022/08/25 01:09:52;;;;;;;4.83;3.97;;;22.80;72.90;;;;;;5097474;28;20200;-71
2022/08/25 01:12:20;;;;;;;4.47;4.03;;;22.80;72.80;;;;;;5093343;28;20192;-72
2022/08/25 01:14:48;;;;;;;6.67;3.77;;;22.70;72.40;;;;;;5088797;27;20200;-71
2022/08/25 01:17:16;;;;;;;7.67;4.40;;;22.80;72.20;;;;;;5114978;27;20201;-71
2022/08/25 01:19:43;;;;;;;6.63;4.20;;;22.70;72.10;;;;;;5106900;27;20197;-71
2022/08/25 01:22:11;;;;;;;4.13;3.70;;;22.70;72.00;;;;;;5115070;27;20209;-71
2022/08/25 01:24:41;;;;;;;5.73;4.07;;;22.70;72.30;;;;;;5122557;27;20653;-71
2022/08/25 01:27:09;;;;;;;6.87;3.87;;;22.60;72.70;;;;;;5124631;27;20192;-71
2022/08/25 01:29:37;;;;;;;7.73;3.90;;;22.60;72.90;;;;;;5118719;27;20220;-71
2022/08/25 01:32:08;;;;;;;6.60;4.40;;;22.60;73.00;;;;;;5109017;27;20633;-71
2022/08/25 01:34:39;;;;;;;6.97;3.90;;;22.50;73.20;;;;;;5114363;27;20266;-71
2022/08/25 01:37:09;;;;;;;10.60;4.03;;;22.50;73.50;;;;;;5112961;27;20216;-71
2022/08/25 01:39:40;;;;;;;6.40;4.60;;;22.50;73.80;;;;;;5104345;27;20196;-72
2022/08/25 01:42:19;;;;;;;10.47;4.53;;;22.40;74.10;;;;;;5120678;27;20215;-71
2022/08/25 01:44:46;;;;;;;5.83;4.40;;;22.40;74.30;;;;;;5123320;27;20189;-71
2022/08/25 01:47:14;;;;;;;7.77;4.43;;;22.50;74.30;;;;;;5107555;27;20520;-71
2022/08/25 01:49:42;;;;;;;10.63;5.57;;;22.40;74.10;;;;;;5114361;27;20207;-72
2022/08/25 01:52:19;;;;;;;7.77;5.10;;;22.40;73.80;;;;;;5119171;27;20196;-71
2022/08/25 01:54:47;;;;;;;6.60;4.60;;;22.40;73.70;;;;;;5120918;27;20211;-71
2022/08/25 01:57:14;;;;;;;6.90;4.80;;;22.40;73.70;;;;;;5122815;27;20205;-71
2022/08/25 01:59:42;;;;;;;7.77;4.80;;;22.40;73.60;;;;;;5105845;28;20201;-71
2022/08/25 02:02:09;;;;;;;5.00;4.53;;;22.40;73.60;;;;;;5116448;27;20213;-71
2022/08/25 02:04:36;;;;;;;6.27;4.63;;;22.40;73.70;;;;;;5102535;27;20215;-71
2022/08/25 02:07:05;;;;;;;10.60;4.93;;;22.30;73.70;;;;;;5123665;27;20191;-71
2022/08/25 02:09:34;;;;;;;6.83;4.37;;;22.30;73.70;;;;;;5118756;27;20698;-72
2022/08/25 02:12:02;;;;;;;7.20;4.70;;;22.30;73.90;;;;;;5111851;27;20215;-71
2022/08/25 02:14:29;;;;;;;10.43;4.63;;;22.20;74.30;;;;;;5120375;27;20192;-70
2022/08/25 02:16:56;;;;;;;9.47;5.30;;;22.20;74.60;;;;;;5101966;27;20192;-71
2022/08/25 02:19:24;;;;;;;8.13;5.37;;;22.20;74.70;;;;;;5116878;27;20240;-71
2022/08/25 02:21:52;;;;;;;5.53;4.20;;;22.20;74.70;;;;;;5120604;27;20295;-71
2022/08/25 02:24:19;;;;;;;9.33;4.63;;;22.20;74.90;;;;;;5128080;27;20214;-71
2022/08/25 02:26:47;;;;;;;8.53;4.77;;;22.10;75.00;;;;;;5114891;27;20684;-71
2022/08/25 02:29:15;;;;;;;7.87;4.90;;;22.10;75.10;;;;;;5101073;27;20641;-71
2022/08/25 02:31:43;;;;;;;8.33;4.57;;;22.10;75.10;;;;;;5116586;27;20219;-71
2022/08/25 02:34:10;;;;;;;8.43;5.37;;;22.00;75.30;;;;;;5118543;27;20640;-71
2022/08/25 02:36:38;;;;;;;6.47;4.63;;;22.00;75.60;;;;;;5103994;28;20621;-71
2022/08/25 02:39:08;;;;;;;7.00;4.47;;;22.00;75.80;;;;;;5092903;28;20548;-71
2022/08/25 02:41:35;;;;;;;13.03;4.30;;;22.00;76.20;;;;;;5112611;27;20212;-71
2022/08/25 02:44:03;;;;;;;13.23;4.60;;;22.00;76.30;;;;;;5122687;27;20218;-71
2022/08/25 02:46:31;;;;;;;7.37;4.53;;;22.00;76.40;;;;;;5112756;27;20219;-71
2022/08/25 02:48:58;;;;;;;5.33;4.33;;;21.90;76.70;;;;;;5107540;27;20621;-70
2022/08/25 02:51:30;;;;;;;9.00;5.00;;;21.90;77.00;;;;;;5108891;27;20255;-71
2022/08/25 02:54:00;;;;;;;6.37;5.70;;;21.90;77.10;;;;;;5100414;27;20211;-71
2022/08/25 02:56:29;;;;;;;9.20;4.97;;;21.90;77.70;;;;;;5114389;27;20632;-71
2022/08/25 02:58:57;;;;;;;7.73;5.07;;;21.80;76.90;;;;;;5117477;27;20218;-71
2022/08/25 03:01:24;;;;;;;7.13;5.13;;;21.80;77.00;;;;;;5102835;28;20204;-71
2022/08/25 03:03:55;;;;;;;8.20;4.87;;;21.80;77.10;;;;;;5125071;27;20224;-71
2022/08/25 03:06:23;;;;;;;8.33;4.50;;;21.80;77.10;;;;;;5106170;28;20265;-71
2022/08/25 03:08:52;;;;;;;6.03;5.43;;;21.80;77.20;;;;;;5113290;28;20203;-71
2022/08/25 03:11:20;;;;;;;10.67;5.80;;;21.80;77.20;;;;;;5115756;28;20260;-71
2022/08/25 03:13:49;;;;;;;12.77;5.77;;;21.80;77.10;;;;;;5113551;28;20215;-71
2022/08/25 03:16:17;;;;;;;6.07;5.47;;;21.80;76.90;;;;;;5121993;28;20204;-71
2022/08/25 03:18:45;;;;;;;10.60;5.60;;;21.80;76.80;;;;;;5121614;28;20244;-72
2022/08/25 03:21:12;;;;;;;7.87;5.93;;;21.80;77.00;;;;;;5113593;28;20205;-71
2022/08/25 03:23:42;;;;;;;7.10;5.23;;;21.80;77.10;;;;;;5112738;28;20251;-71
2022/08/25 03:28:54;;;;;;;6.77;5.50;;;21.80;77.00;;;;;;5119803;28;20196;-71
2022/08/25 03:31:24;;;;;;;6.70;6.03;;;21.80;77.10;;;;;;5116218;28;20208;-71
2022/08/25 03:33:52;;;;;;;8.20;5.97;;;21.70;77.10;;;;;;5083422;28;20291;-71
2022/08/25 03:36:19;;;;;;;8.93;6.43;;;21.70;77.20;;;;;;5115260;28;20203;-71
2022/08/25 03:38:46;;;;;;;8.57;7.57;;;21.70;77.30;;;;;;5118506;28;20204;-71
2022/08/25 03:41:20;;;;;;;8.03;7.07;;;21.70;77.10;;;;;;5113036;28;20224;-70
2022/08/25 03:43:48;;;;;;;7.63;6.43;;;21.70;76.80;;;;;;5116714;28;20227;-71
2022/08/25 03:46:21;;;;;;;9.60;7.13;;;21.70;76.80;;;;;;5121366;28;20211;-71
2022/08/25 03:48:49;;;;;;;7.37;6.37;;;21.60;76.90;;;;;;5119011;28;20212;-71
2022/08/25 03:51:21;;;;;;;12.83;7.07;;;21.60;77.00;;;;;;5112401;28;20249;-71
2022/08/25 03:53:49;;;;;;;9.60;7.00;;;21.60;76.90;;;;;;5113413;28;20215;-71
2022/08/25 03:56:17;;;;;;;9.17;7.43;;;21.70;76.90;;;;;;5122581;28;20215;-71
2022/08/25 03:58:44;;;;;;;14.37;7.70;;;21.70;76.90;;;;;;5120431;28;20803;-71
2022/08/25 04:01:12;;;;;;;8.63;6.90;;;21.60;77.20;;;;;;5115996;28;20214;-71
2022/08/25 04:03:41;;;;;;;13.63;7.47;;;21.60;77.40;;;;;;5115022;28;20226;-71
2022/08/25 04:06:09;;;;;;;9.07;6.93;;;21.60;77.50;;;;;;5087214;28;20203;-70
2022/08/25 04:08:37;;;;;;;9.43;7.37;;;21.60;77.70;;;;;;5124570;27;20188;-72
2022/08/25 04:11:16;;;;;;;9.00;7.50;;;21.60;77.70;;;;;;5122432;27;20212;-71
2022/08/25 04:13:45;;;;;;;9.03;6.77;;;21.60;77.80;;;;;;5112081;27;20204;-72
2022/08/25 04:16:22;;;;;;;9.63;7.80;;;21.60;77.70;;;;;;5100590;27;20630;-71
2022/08/25 04:18:51;;;;;;;13.00;7.53;;;21.60;77.70;;;;;;5117342;27;20767;-71
2022/08/25 04:21:20;;;;;;;8.77;7.87;;;21.60;77.70;;;;;;5104468;27;20195;-70
2022/08/25 04:23:48;;;;;;;13.97;6.97;;;21.60;77.70;;;;;;5116746;27;20265;-71
2022/08/25 04:26:32;;;;;;;12.20;8.03;;;21.60;77.40;;;;;;5110879;27;20646;-71
2022/08/25 04:29:01;;;;;;;10.50;7.20;;;21.70;77.10;;;;;;5106310;27;20215;-71
2022/08/25 04:31:29;;;;;;;10.27;7.20;;;21.60;77.00;;;;;;5116172;27;20189;-71
2022/08/25 04:33:57;;;;;;;11.10;7.67;;;21.60;76.80;;;;;;5121052;27;20263;-71
2022/08/25 04:36:24;;;;;;;11.30;7.33;;;21.60;76.80;;;;;;5122426;27;20555;-71
2022/08/25 04:38:51;;;;;;;9.67;7.00;;;21.60;76.80;;;;;;5122395;27;20220;-71
2022/08/25 04:41:20;;;;;;;8.10;7.30;;;21.60;76.80;;;;;;5115090;27;20574;-71
2022/08/25 04:43:48;;;;;;;12.40;6.77;;;21.60;77.00;;;;;;5096345;28;20248;-71
2022/08/25 04:46:21;;;;;;;11.90;7.53;;;21.60;77.00;;;;;;5099418;27;20536;-71
2022/08/25 04:48:50;;;;;;;11.80;7.23;;;21.60;77.10;;;;;;5105156;27;20273;-71
2022/08/25 04:51:22;;;;;;;8.33;7.23;;;21.60;77.00;;;;;;5123863;27;20199;-71
2022/08/25 04:53:50;;;;;;;12.43;7.40;;;21.70;77.00;;;;;;5116157;27;20192;-71
2022/08/25 04:56:20;;;;;;;11.80;7.80;;;21.70;76.90;;;;;;5123240;27;20201;-71
2022/08/25 04:58:47;;;;;;;12.13;7.23;;;21.70;76.70;;;;;;5128480;27;20204;-71
2022/08/25 05:01:17;;;;;;;10.10;7.83;;;21.70;76.80;;;;;;5123204;27;20545;-71
2022/08/25 05:03:47;;;;;;;10.47;7.00;;;21.70;76.80;;;;;;5123312;27;20220;-71
2022/08/25 05:06:14;;;;;;;15.53;7.83;;;21.80;77.00;;;;;;5087302;27;20196;-72
2022/08/25 05:08:43;;;;;;;8.63;6.97;;;21.80;77.10;;;;;;5111014;27;20320;-72
2022/08/25 05:11:13;;;;;;;9.37;8.20;;;21.80;77.20;;;;;;5114203;27;20188;-71
2022/08/25 05:13:43;;;;;;;13.23;7.50;;;21.80;77.30;;;;;;5113556;27;20223;-71
2022/08/25 05:16:18;;;;;;;9.43;7.67;;;21.90;77.20;;;;;;5094430;27;20291;-71
2022/08/25 05:18:45;;;;;;;9.03;7.97;;;21.90;77.10;;;;;;5128774;27;20239;-71
2022/08/25 05:21:17;;;;;;;10.17;7.77;;;21.90;76.80;;;;;;5101453;27;20295;-71
2022/08/25 05:23:45;;;;;;;8.60;7.70;;;22.00;76.40;;;;;;5110154;27;20216;-72
2022/08/25 05:26:15;;;;;;;15.67;8.40;;;22.00;76.20;;;;;;5092016;27;20670;-71
2022/08/25 05:28:49;;;;;;;11.07;9.03;;;22.10;76.20;;;;;;5118693;27;20196;-71
2022/08/25 05:31:17;;;;;;;10.10;9.20;;;22.20;76.20;;;;;;5099999;27;20492;-71
2022/08/25 05:33:44;;;;;;;10.17;9.00;;;22.30;76.20;;;;;;5102967;27;20591;-72
2022/08/25 05:36:14;;;;;;;10.80;9.20;;;22.40;75.60;;;;;;5106978;27;20227;-71
2022/08/25 05:38:41;;;;;;;9.63;8.63;;;22.50;75.40;;;;;;5117995;27;20204;-72
2022/08/25 05:41:11;;;;;;;10.13;9.13;;;22.60;75.50;;;;;;5107191;27;20275;-71
2022/08/25 05:43:41;;;;;;;11.00;9.23;;;22.70;75.60;;;;;;5122038;27;20216;-71
2022/08/25 05:46:09;;;;;;;12.50;9.70;;;22.80;75.60;;;;;;5122520;27;20200;-72
2022/08/25 05:48:37;;;;;;;12.27;9.23;;;22.90;75.70;;;;;;5116688;27;20198;-71
2022/08/25 05:51:06;;;;;;;14.57;9.80;;;23.10;75.70;;;;;;5121420;27;20207;-71
2022/08/25 05:53:34;;;;;;;10.10;9.10;;;23.20;75.40;;;;;;5114173;27;20196;-72
2022/08/25 05:56:02;;;;;;;13.27;9.17;;;23.30;75.00;;;;;;5102297;27;20203;-71
2022/08/25 05:58:30;;;;;;;14.67;10.27;;;23.50;74.80;;;;;;5088311;27;20202;-71
2022/08/25 06:02:39;;;;;;;11.57;10.13;;;23.60;74.50;;;;;;5104386;27;20240;-71
2022/08/25 06:03:52;;;;;;;15.13;10.53;;;23.70;74.30;;;;;;5103065;27;20228;-71
2022/08/25 06:06:23;;;;;;;12.77;10.73;;;23.80;74.00;;;;;;5113663;27;20184;-71
2022/08/25 06:08:50;;;;;;;22.33;10.40;;;24.00;73.40;;;;;;5089005;28;20207;-72
2022/08/25 06:11:18;;;;;;;11.23;10.13;;;24.10;73.20;;;;;;5119260;27;20202;-71
2022/08/25 06:13:45;;;;;;;16.87;11.13;;;24.20;72.80;;;;;;5121103;27;20204;-71
2022/08/25 06:16:12;;;;;;;12.10;10.00;;;24.40;72.30;;;;;;5104612;28;20223;-71
2022/08/25 06:18:39;;;;;;;13.47;10.20;;;24.60;71.70;;;;;;5120579;27;20266;-71
2022/08/25 06:21:12;;;;;;;11.67;10.50;;;24.70;70.90;;;;;;5113282;27;20629;-72
2022/08/25 06:23:40;;;;;;;12.07;9.63;;;25.00;70.20;;;;;;5082639;28;20535;-71
2022/08/25 06:26:10;;;;;;;12.57;10.70;;;25.10;69.50;;;;;;5119820;27;20208;-72
2022/08/25 06:28:49;;;;;;;14.00;9.83;;;25.30;69.20;;;;;;5100872;27;20203;-72
2022/08/25 06:31:16;;;;;;;15.50;9.30;;;25.50;68.70;;;;;;5099971;27;20213;-71
2022/08/25 06:33:43;;;;;;;20.57;11.00;;;25.60;68.10;;;;;;5100472;28;20209;-72
2022/08/25 06:36:11;;;;;;;13.00;9.80;;;25.70;67.60;;;;;;5108425;28;20214;-72
2022/08/25 06:38:38;;;;;;;13.27;10.63;;;25.80;67.30;;;;;;5116929;27;20219;-71
2022/08/25 06:41:07;;;;;;;13.73;10.50;;;25.90;67.60;;;;;;5118213;27;20223;-71
2022/08/25 06:43:34;;;;;;;18.23;10.03;;;26.00;66.90;;;;;;5121029;27;20308;-71
2022/08/25 06:46:13;;;;;;;12.40;9.87;;;26.10;66.30;;;;;;5100492;27;20584;-72
2022/08/25 06:48:40;;;;;;;12.13;9.60;;;26.20;66.10;;;;;;5117394;27;20189;-71
2022/08/25 06:51:10;;;;;;;13.67;9.63;;;26.30;65.60;;;;;;5126985;27;20192;-72
2022/08/25 06:53:41;;;;;;;10.87;8.47;;;26.40;65.40;;;;;;5116860;27;20206;-72
2022/08/25 06:56:09;;;;;;;13.57;8.77;;;26.50;64.70;;;;;;5097639;27;20258;-72
2022/08/25 06:58:37;;;;;;;10.90;9.57;;;26.60;64.50;;;;;;5122365;27;20199;-72
2022/08/25 07:01:13;;;;;;;11.43;9.23;;;26.70;64.10;;;;;;5099022;28;20233;-71
2022/08/25 07:03:46;;;;;;;12.80;9.27;;;26.80;63.80;;;;;;5101021;27;20222;-71
2022/08/25 07:06:14;;;;;;;11.60;8.83;;;26.90;63.30;;;;;;5119271;28;20187;-72
2022/08/25 07:08:45;;;;;;;11.73;9.13;;;27.00;63.50;;;;;;5122443;27;20209;-72
2022/08/25 07:11:15;;;;;;;10.93;8.90;;;27.10;62.60;;;;;;5108238;28;20191;-72
2022/08/25 07:13:44;;;;;;;12.77;9.63;;;27.20;62.20;;;;;;5113612;28;20192;-72
2022/08/25 07:16:14;;;;;;;12.23;9.33;;;27.30;62.10;;;;;;5121990;28;20235;-72
2022/08/25 07:18:42;;;;;;;14.90;9.30;;;27.30;61.00;;;;;;5104651;28;20244;-72
2022/08/25 07:21:11;;;;;;;10.57;8.13;;;27.40;61.70;;;;;;5102350;28;20301;-72
2022/08/25 07:23:41;;;;;;;10.17;8.90;;;27.40;61.80;;;;;;5105193;28;20212;-71
2022/08/25 07:26:25;;;;;;;11.47;7.83;;;27.60;61.70;;;;;;5094131;28;20526;-72
2022/08/25 07:29:13;;;;;;;10.03;8.10;;;27.70;61.60;;;;;;5094803;28;20303;-72
2022/08/25 07:31:41;;;;;;;9.23;7.60;;;27.80;60.20;;;;;;5114964;28;20201;-71
2022/08/25 07:36:56;;;;;;;11.30;6.97;;;28.00;59.70;;;;;;5089905;28;20322;-71
2022/08/25 07:39:25;;;;;;;7.93;6.90;;;28.10;59.80;;;;;;5116419;28;20336;-72
2022/08/25 07:41:55;;;;;;;12.77;6.43;;;28.20;60.00;;;;;;5123265;27;20206;-71
2022/08/25 07:44:23;;;;;;;10.50;6.83;;;28.30;59.70;;;;;;5122957;27;20218;-71
2022/08/25 07:46:54;;;;;;;8.60;6.67;;;28.40;59.80;;;;;;5107738;27;20197;-72
2022/08/25 07:49:24;;;;;;;9.13;6.57;;;28.50;59.80;;;;;;5107363;27;20298;-72
2022/08/25 07:51:54;;;;;;;6.60;5.63;;;28.60;59.50;;;;;;5102659;27;20570;-72
2022/08/25 07:54:34;;;;;;;10.23;6.30;;;28.80;59.60;;;;;;5116419;27;20197;-71
2022/08/25 07:57:06;;;;;;;11.23;5.67;;;28.90;59.00;;;;;;5109214;27;20291;-72
2022/08/25 07:59:34;;;;;;;10.73;5.27;;;29.10;58.40;;;;;;5119053;27;20222;-72
2022/08/25 08:02:11;;;;;;;9.57;6.40;;;29.20;57.60;;;;;;5103953;27;20205;-71
2022/08/25 08:04:49;;;;;;;7.67;6.20;;;29.40;57.50;;;;;;5123957;27;20229;-71
2022/08/25 08:07:22;;;;;;;6.90;5.33;;;29.50;57.30;;;;;;5089506;27;20562;-72
2022/08/25 08:09:50;;;;;;;11.87;4.33;;;29.60;56.90;;;;;;5119011;27;20195;-72
2022/08/25 08:12:37;;;;;;;5.43;4.93;;;29.70;56.80;;;;;;5105424;28;20220;-71
2022/08/25 08:15:05;;;;;;;9.67;5.10;;;29.90;56.20;;;;;;5121356;27;20226;-72
2022/08/25 08:17:37;;;;;;;7.07;4.50;;;30.00;55.80;;;;;;5099276;27;20252;-72
2022/08/25 08:20:08;;;;;;;6.70;5.70;;;30.20;56.30;;;;;;5119322;27;20535;-72
2022/08/25 08:22:42;;;;;;;8.70;4.57;;;30.40;55.90;;;;;;5105996;27;20253;-72
2022/08/25 08:25:10;;;;;;;4.93;3.53;;;30.50;55.40;;;;;;5090867;27;20233;-72
2022/08/25 08:27:45;;;;;;;6.73;5.27;;;30.70;55.30;;;;;;5110148;27;20225;-72
2022/08/25 08:30:12;;;;;;;6.47;4.13;;;30.80;54.60;;;;;;5121395;27;20215;-72
2022/08/25 08:32:39;;;;;;;6.17;4.30;;;30.90;54.70;;;;;;5123353;27;20637;-72
2022/08/25 08:35:27;;;;;;;4.50;4.00;;;31.00;54.60;;;;;;5104320;27;20255;-72
2022/08/25 08:37:54;;;;;;;4.87;4.40;;;31.20;53.80;;;;;;5124378;27;20206;-72
2022/08/25 08:40:21;;;;;;;4.90;4.40;;;31.20;53.80;;;;;;5102153;28;20204;-72
2022/08/25 08:43:08;;;;;;;6.30;4.03;;;31.30;53.60;;;;;;5119067;27;20540;-72
2022/08/25 08:45:51;;;;;;;8.07;4.73;;;31.40;53.20;;;;;;5100997;27;20286;-72
2022/08/25 08:48:51;;;;;;;8.80;4.90;;;31.40;53.80;;;;;;5123560;27;20248;-72
2022/08/25 08:51:31;;;;;;;7.77;4.37;;;31.40;52.90;;;;;;5105302;27;20199;-72
2022/08/25 08:54:12;;;;;;;6.60;4.17;;;31.40;53.50;;;;;;5108065;27;20528;-72
2022/08/25 08:56:47;;;;;;;7.13;4.27;;;31.40;53.40;;;;;;5108943;27;20206;-73
2022/08/25 08:59:24;;;;;;;8.43;4.53;;;31.50;53.60;;;;;;5117109;27;20200;-72
2022/08/25 09:02:01;;;;;;;5.70;3.73;;;31.60;53.40;;;;;;5116582;27;20236;-72
2022/08/25 09:04:56;;;;;;;5.70;4.10;;;31.70;53.40;;;;;;5117196;27;20531;-72
2022/08/25 09:07:34;;;;;;;6.93;3.87;;;32.00;53.30;;;;;;5107695;28;20209;-71
2022/08/25 09:10:03;;;;;;;5.67;4.07;;;32.00;52.00;;;;;;5122468;27;20210;-71
2022/08/25 09:12:34;;;;;;;4.73;4.30;;;32.10;52.30;;;;;;5090775;27;20201;-71
2022/08/25 09:15:06;;;;;;;6.77;4.40;;;32.30;52.60;;;;;;5104739;27;20219;-71
2022/08/25 09:17:51;;;;;;;4.57;4.00;;;32.40;51.70;;;;;;5119251;27;20227;-72
2022/08/25 09:21:06;;;;;;;11.33;4.50;;;32.50;50.60;;;;;;5124742;27;20279;-71
2022/08/25 09:23:39;;;;;;;8.43;4.37;;;32.50;50.70;;;;;;5040023;28;20270;-72
2022/08/25 09:26:24;;;;;;;6.10;4.50;;;32.50;50.50;;;;;;5036775;28;20210;-72
2022/08/25 09:29:08;;;;;;;6.07;4.77;;;32.50;50.80;;;;;;5078226;27;20223;-72
2022/08/25 09:31:44;;;;;;;9.37;4.17;;;32.60;50.00;;;;;;5120652;27;20195;-72
2022/08/25 09:34:12;;;;;;;5.73;4.57;;;32.60;50.60;;;;;;5122831;27;20630;-72
2022/08/25 09:36:40;;;;;;;7.73;4.43;;;32.60;50.20;;;;;;5121829;27;20650;-72
2022/08/25 09:39:07;;;;;;;4.00;3.70;;;32.60;50.30;;;;;;5108823;27;20212;-72
2022/08/25 09:41:46;;;;;;;4.47;4.07;;;32.60;51.00;;;;;;5114620;27;20557;-71
2022/08/25 09:44:42;;;;;;;7.27;4.30;;;32.60;51.00;;;;;;5113129;27;20229;-71
2022/08/25 09:47:22;;;;;;;4.90;3.60;;;32.80;49.60;;;;;;5118333;27;20235;-72
2022/08/25 09:49:59;;;;;;;6.20;4.47;;;32.80;49.70;;;;;;5118493;27;20199;-72
2022/08/25 09:52:32;;;;;;;4.80;3.80;;;32.90;49.00;;;;;;5102221;28;20221;-72
2022/08/25 09:55:21;;;;;;;6.83;4.43;;;32.90;49.40;;;;;;5109663;27;20655;-72
2022/08/25 09:57:53;;;;;;;4.57;3.93;;;33.00;49.70;;;;;;5120165;27;20254;-72
2022/08/25 10:00:32;;;;;;;6.10;3.93;;;33.10;49.10;;;;;;5087487;27;20205;-72
2022/08/25 10:03:10;;;;;;;5.20;3.60;;;33.20;49.00;;;;;;5107455;27;20192;-71
2022/08/25 10:06:03;;;;;;;7.20;4.10;;;33.20;47.60;;;;;;5098527;28;20243;-71
2022/08/25 10:08:38;;;;;;;5.60;4.03;;;33.20;47.60;;;;;;5094742;27;20202;-72
2022/08/25 10:11:12;;;;;;;4.20;3.90;;;33.10;47.80;;;;;;5118510;27;20192;-71
2022/08/25 10:13:45;;;;;;;7.13;3.87;;;33.00;48.90;;;;;;5116847;27;20259;-71
2022/08/25 10:16:27;;;;;;;4.77;3.63;;;33.10;49.10;;;;;;5103180;27;20302;-71
2022/08/25 10:19:07;;;;;;;4.87;3.90;;;33.10;48.70;;;;;;5104122;27;20227;-71
2022/08/25 10:21:37;;;;;;;4.77;3.33;;;33.20;49.30;;;;;;5117045;27;20524;-71
2022/08/25 10:24:07;;;;;;;8.80;4.07;;;33.20;49.60;;;;;;5084647;28;20238;-71
2022/08/25 10:27:05;;;;;;;4.30;3.70;;;33.30;48.00;;;;;;5088734;27;20587;-71
2022/08/25 10:29:51;;;;;;;6.37;3.67;;;33.30;48.20;;;;;;5110459;28;20185;-71
2022/08/25 10:32:34;;;;;;;5.10;3.80;;;33.30;48.60;;;;;;5086448;27;20196;-71
2022/08/25 10:35:25;;;;;;;5.67;3.97;;;33.40;49.00;;;;;;5078484;27;20307;-72
2022/08/25 10:38:13;;;;;;;4.30;3.57;;;33.50;49.10;;;;;;5105255;27;20213;-71
2022/08/25 10:41:08;;;;;;;4.10;3.70;;;33.60;48.90;;;;;;5090054;27;20492;-71
2022/08/25 10:43:56;;;;;;;4.03;3.63;;;33.80;48.60;;;;;;5087350;28;20207;-71
2022/08/25 10:46:46;;;;;;;5.83;4.13;;;33.90;47.10;;;;;;5118169;27;20623;-71
2022/08/25 10:49:32;;;;;;;5.43;3.97;;;33.90;47.40;;;;;;5110271;27;20192;-71
2022/08/25 10:52:11;;;;;;;7.50;3.60;;;34.00;47.30;;;;;;5075079;28;20231;-71
2022/08/25 10:54:56;;;;;;;4.30;3.90;;;34.10;47.30;;;;;;5117315;27;20196;-71
2022/08/25 10:57:55;;;;;;;6.40;4.67;;;34.20;47.60;;;;;;5098475;27;20216;-71
2022/08/25 11:00:25;;;;;;;5.50;3.83;;;34.30;47.00;;;;;;5116229;27;20625;-72
2022/08/25 11:03:21;;;;;;;3.93;3.60;;;34.20;46.30;;;;;;5120302;27;20282;-72
2022/08/25 11:06:04;;;;;;;4.20;3.80;;;33.90;46.20;;;;;;5113848;27;20295;-72
2022/08/25 11:08:39;;;;;;;3.53;3.23;;;33.70;47.00;;;;;;5117440;27;20662;-72
2022/08/25 11:11:12;;;;;;;4.67;3.67;;;33.50;47.50;;;;;;5120764;28;20199;-72
2022/08/25 11:13:51;;;;;;;3.73;3.17;;;33.30;48.10;;;;;;5112008;27;20200;-72
2022/08/25 11:16:39;;;;;;;5.47;3.60;;;33.10;49.00;;;;;;5118386;27;20192;-71
2022/08/25 11:19:15;;;;;;;5.37;3.70;;;33.10;47.90;;;;;;5126412;27;20239;-71
2022/08/25 11:22:03;;;;;;;6.53;3.70;;;33.10;48.40;;;;;;5126901;27;20198;-71
2022/08/25 11:24:58;;;;;;;3.90;3.53;;;33.10;48.60;;;;;;5115611;27;20232;-71
2022/08/25 11:27:54;;;;;;;3.53;3.23;;;33.10;48.00;;;;;;5126291;27;20196;-71
2022/08/25 11:30:21;;;;;;;5.60;3.70;;;33.00;49.30;;;;;;5119209;27;20206;-71
2022/08/25 11:32:54;;;;;;;6.50;3.50;;;32.80;49.60;;;;;;5121881;27;20200;-71
2022/08/25 11:35:49;;;;;;;3.67;3.37;;;32.70;48.50;;;;;;5102957;28;20251;-71
2022/08/25 11:38:42;;;;;;;7.67;3.83;;;32.90;47.80;;;;;;5118524;27;20200;-72
2022/08/25 11:41:38;;;;;;;4.10;3.47;;;33.00;48.40;;;;;;5104051;27;20572;-71
2022/08/25 11:44:42;;;;;;;4.17;3.77;;;33.20;48.60;;;;;;5106101;28;20291;-71
2022/08/25 11:47:38;;;;;;;4.33;3.80;;;33.50;48.10;;;;;;5108762;27;20196;-71
2022/08/25 11:50:22;;;;;;;4.43;4.03;;;33.60;47.50;;;;;;5106009;27;20192;-71
2022/08/25 11:52:55;;;;;;;5.70;3.93;;;33.60;47.10;;;;;;5126604;27;20304;-71
2022/08/25 11:55:36;;;;;;;5.43;3.33;;;33.50;48.20;;;;;;5113420;27;20257;-71
2022/08/25 11:58:27;;;;;;;8.93;3.70;;;33.30;48.40;;;;;;5119048;27;20621;-71
2022/08/25 12:00:58;;;;;;;4.20;3.60;;;33.20;48.40;;;;;;5125222;27;20193;-71
2022/08/25 12:03:31;;;;;;;3.67;3.37;;;33.00;47.80;;;;;;5125572;27;20203;-71
2022/08/25 12:06:25;;;;;;;6.90;4.37;;;32.90;47.90;;;;;;5114959;27;20224;-71
2022/08/25 12:09:12;;;;;;;5.03;4.53;;;32.70;48.30;;;;;;5093437;27;20265;-71
2022/08/25 12:11:48;;;;;;;3.80;3.43;;;32.60;48.10;;;;;;5116181;27;20214;-71
2022/08/25 12:14:21;;;;;;;3.63;3.30;;;32.30;48.70;;;;;;5119989;27;20215;-71
2022/08/25 12:16:55;;;;;;;9.97;4.27;;;32.10;49.20;;;;;;5087491;28;20536;-71
2022/08/25 12:19:24;;;;;;;4.40;3.77;;;31.90;50.40;;;;;;5107018;27;20303;-71
2022/08/25 12:21:54;;;;;;;5.80;3.73;;;32.00;50.90;;;;;;5118430;27;20208;-71
2022/08/25 12:24:41;;;;;;;6.97;3.73;;;32.10;48.10;;;;;;5118830;27;20193;-71
2022/08/25 12:27:28;;;;;;;6.23;3.77;;;32.40;48.20;;;;;;5123326;27;20196;-71
2022/08/25 12:30:18;;;;;;;6.43;3.87;;;32.70;48.10;;;;;;5109373;27;20204;-71
2022/08/25 12:32:56;;;;;;;5.27;3.10;;;32.90;46.70;;;;;;5112786;27;20200;-71
2022/08/25 12:35:30;;;;;;;3.40;2.90;;;33.00;47.00;;;;;;5123107;27;20214;-71
2022/08/25 12:38:14;;;;;;;3.70;3.40;;;33.20;46.60;;;;;;5118863;27;20214;-71
2022/08/25 12:40:41;;;;;;;4.03;3.37;;;33.40;46.00;;;;;;5118337;27;20228;-71
2022/08/25 12:43:25;;;;;;;3.50;3.20;;;33.60;45.80;;;;;;5100882;27;20514;-71
2022/08/25 12:46:14;;;;;;;3.50;3.20;;;33.70;46.30;;;;;;5118456;27;20278;-71
2022/08/25 12:48:54;;;;;;;4.47;3.37;;;33.80;46.00;;;;;;5086041;27;20617;-71
2022/08/25 12:51:25;;;;;;;4.47;3.27;;;33.80;44.90;;;;;;5125832;27;20191;-70
2022/08/25 12:54:00;;;;;;;4.30;3.50;;;33.70;44.40;;;;;;5119488;27;20196;-71
2022/08/25 12:56:36;;;;;;;4.00;3.17;;;33.60;45.70;;;;;;5124200;27;20224;-71
2022/08/25 12:59:20;;;;;;;3.47;3.13;;;33.60;44.70;;;;;;5126161;27;20232;-71
2022/08/25 13:02:25;;;;;;;2.87;2.67;;;33.60;44.90;;;;;;5102451;27;20202;-71
2022/08/25 13:05:15;;;;;;;3.93;2.90;;;33.80;44.30;;;;;;5110536;27;20212;-72
2022/08/25 13:08:02;;;;;;;4.10;3.00;;;33.70;44.60;;;;;;5049852;28;20201;-71
2022/08/25 13:10:36;;;;;;;4.93;3.67;;;33.80;44.60;;;;;;5116607;27;20642;-71
2022/08/25 13:13:38;;;;;;;5.00;3.13;;;33.70;44.40;;;;;;5087586;27;20628;-71
2022/08/25 13:16:14;;;;;;;4.47;3.43;;;33.70;45.10;;;;;;5122552;27;20192;-71
2022/08/25 13:18:41;;;;;;;6.50;3.37;;;33.80;44.60;;;;;;5116943;27;20239;-71
2022/08/25 13:21:29;;;;;;;3.53;3.00;;;33.80;43.90;;;;;;5115186;27;20208;-71